Time;durP1;ratioP1;P1;durP2;ratioP2;P2;SDS_P1;SDS_P2;PMS_P1;PMS_P2;Temp;Humidity;BMP_temperature;BMP_pressure;BME280_temperature;BME280_humidity;BME280_pressure;Samples;Min_cycle;Max_cycle;Signal;HPM_P1;HPM_P2
2022/07/16 00:02:42;;;;;;;;;3.33;3.33;;;;;23.62;38.40;101921.69;5017999;28;45415;-70
2022/07/16 00:05:08;;;;;;;;;3.67;3.67;;;;;23.65;38.52;101932.41;5021777;28;45361;-69
2022/07/16 00:07:33;;;;;;;;;6.33;4.00;;;;;23.60;39.11;101934.91;5016758;28;45461;-69
2022/07/16 00:09:59;;;;;;;;;3.00;3.00;;;;;23.70;38.30;101938.19;5020162;28;46149;-69
2022/07/16 00:12:25;;;;;;;;;3.00;3.00;;;;;23.63;38.37;101935.38;5011738;28;45459;-70
2022/07/16 00:14:51;;;;;;;;;4.67;3.00;;;;;23.60;38.63;101932.13;5019161;28;45413;-69
2022/07/16 00:17:17;;;;;;;;;3.00;3.00;;;;;23.48;39.30;101925.47;5018649;28;45327;-69
2022/07/16 00:19:42;;;;;;;;;1.67;1.67;;;;;23.47;39.30;101929.25;5016206;28;45325;-69
2022/07/16 00:22:09;;;;;;;;;4.50;4.50;;;;;23.40;39.25;101931.13;5022757;28;45188;-70
2022/07/16 00:24:35;;;;;;;;;3.00;3.00;;;;;23.34;39.64;101931.97;5020969;28;46293;-72
2022/07/16 00:27:00;;;;;;;;;3.00;3.00;;;;;23.42;39.47;101940.13;5021487;28;45961;-70
2022/07/16 00:29:26;;;;;;;;;4.00;3.33;;;;;23.38;39.61;101927.75;5021572;28;45591;-70
2022/07/16 00:31:53;;;;;;;;;2.67;2.67;;;;;23.42;39.92;101935.44;5019575;28;45662;-70
2022/07/16 00:34:18;;;;;;;;;3.00;3.00;;;;;23.39;39.25;101929.41;5022717;28;45618;-70
2022/07/16 00:36:44;;;;;;;;;0.33;0.33;;;;;23.33;39.43;101924.69;5016087;28;46008;-70
2022/07/16 00:39:10;;;;;;;;;3.67;2.33;;;;;23.32;39.49;101928.53;5022751;28;45292;-70
2022/07/16 00:41:37;;;;;;;;;4.00;3.00;;;;;23.27;39.71;101927.22;5019659;28;45283;-70
2022/07/16 00:44:07;;;;;;;;;3.00;3.00;;;;;23.44;39.29;101932.47;5022180;28;45596;-70
2022/07/16 00:46:33;;;;;;;;;3.00;3.00;;;;;23.56;38.86;101939.16;5019664;28;46423;-70
2022/07/16 00:49:00;;;;;;;;;4.00;3.00;;;;;23.56;38.93;101939.16;5022915;28;45397;-70
2022/07/16 00:51:26;;;;;;;;;4.00;3.00;;;;;23.45;39.71;101931.41;5016345;28;45447;-70
2022/07/16 00:53:53;;;;;;;;;3.00;3.00;;;;;23.36;39.26;101938.16;5023519;28;45401;-71
2022/07/16 00:56:19;;;;;;;;;4.00;4.00;;;;;23.23;39.99;101934.22;5016322;28;46531;-70
2022/07/16 00:58:46;;;;;;;;;3.00;3.00;;;;;23.30;39.82;101940.66;5023023;28;45268;-70
2022/07/16 01:01:13;;;;;;;;;3.00;2.67;;;;;23.24;40.27;101943.41;5015414;28;45372;-70
2022/07/16 01:03:40;;;;;;;;;2.00;2.00;;;;;23.35;39.60;101942.00;5023372;28;45847;-70
2022/07/16 01:06:07;;;;;;;;;3.67;3.67;;;;;23.37;39.76;101937.97;5015324;28;45485;-69
2022/07/16 01:08:34;;;;;;;;;3.00;3.00;;;;;23.33;39.85;101925.56;5020812;28;45545;-70
2022/07/16 01:11:02;;;;;;;;;3.67;3.67;;;;;23.38;39.15;101944.38;5016871;28;45412;-70
2022/07/16 01:13:28;;;;;;;;;2.67;2.67;;;;;23.38;39.21;101941.59;5022743;28;45465;-72
2022/07/16 01:15:53;;;;;;;;;4.67;2.33;;;;;23.41;39.29;101939.25;5013364;28;46023;-70
2022/07/16 01:18:18;;;;;;;;;4.67;3.33;;;;;23.44;39.29;101932.47;5022369;28;45436;-71
2022/07/16 01:20:44;;;;;;;;;4.00;4.00;;;;;23.40;39.20;101931.13;5016133;28;45462;-69
2022/07/16 01:23:09;;;;;;;;;3.67;3.67;;;;;23.49;38.89;101941.06;5017967;28;45365;-69
2022/07/16 01:25:35;;;;;;;;;4.00;4.00;;;;;23.47;39.03;101940.34;5018311;28;45492;-70
2022/07/16 01:28:00;;;;;;;;;2.67;2.67;;;;;23.49;39.52;101944.69;5022767;28;45662;-69
2022/07/16 01:30:25;;;;;;;;;4.00;4.00;;;;;23.44;39.54;101938.88;5016276;28;45497;-69
2022/07/16 01:32:51;;;;;;;;;5.67;2.00;;;;;23.46;39.42;101942.28;5024987;28;45324;-68
2022/07/16 01:35:18;;;;;;;;;4.00;3.00;;;;;23.41;39.27;101944.81;5009980;28;46163;-68
2022/07/16 01:37:43;;;;;;;;;4.00;4.00;;;;;23.39;39.12;101940.50;5015082;28;45315;-69
2022/07/16 01:40:09;;;;;;;;;3.00;2.00;;;;;23.27;40.16;101938.31;5019191;28;45361;-68
2022/07/16 01:42:34;;;;;;;;;2.33;2.33;;;;;23.23;40.09;101938.94;5021079;28;45390;-68
2022/07/16 01:45:00;;;;;;;;;3.00;3.00;;;;;23.20;40.20;101942.97;5019649;28;46457;-69
2022/07/16 01:47:26;;;;;;;;;5.00;3.33;;;;;23.18;40.35;101945.06;5016367;28;45430;-69
2022/07/16 01:49:51;;;;;;;;;4.00;4.00;;;;;23.19;40.25;101949.56;5019078;28;45300;-69
2022/07/16 01:52:20;;;;;;;;;5.00;4.00;;;;;23.14;40.92;101943.78;5019940;28;45368;-69
2022/07/16 01:54:53;;;;;;;;;5.00;4.00;;;;;22.99;40.18;101943.03;5034989;28;48107;-70
2022/07/16 01:57:21;;;;;;;;;3.33;3.33;;;;;23.08;40.77;101950.16;5019860;28;45340;-69
2022/07/16 01:59:47;;;;;;;;;6.67;4.67;;;;;23.05;40.67;101950.53;5019170;28;45331;-70
2022/07/16 02:02:13;;;;;;;;;3.00;3.00;;;;;22.88;41.92;101943.56;5019357;28;45255;-70
2022/07/16 02:04:40;;;;;;;;;3.67;3.00;;;;;22.93;41.39;101951.28;5019130;28;47445;-70
2022/07/16 02:07:06;;;;;;;;;3.00;3.00;;;;;22.83;40.83;101946.06;5017827;28;45350;-70
2022/07/16 02:09:32;;;;;;;;;4.00;4.00;;;;;22.89;40.91;101943.38;5018092;28;45423;-71
2022/07/16 02:11:57;;;;;;;;;3.00;3.00;;;;;22.94;40.60;101937.22;5015742;28;45505;-70
2022/07/16 02:14:23;;;;;;;;;5.67;4.00;;;;;22.96;40.66;101942.56;5022079;28;46292;-69
2022/07/16 02:16:49;;;;;;;;;5.00;3.00;;;;;22.88;41.31;101941.66;5018557;28;45299;-70
2022/07/16 02:19:14;;;;;;;;;4.33;3.67;;;;;22.86;41.25;101951.22;5020072;28;45346;-70
2022/07/16 02:21:40;;;;;;;;;3.67;3.67;;;;;22.84;41.33;101947.78;5023112;28;45642;-69
2022/07/16 02:24:05;;;;;;;;;5.00;5.00;;;;;22.73;42.42;101945.53;5018546;28;45564;-70
2022/07/16 02:26:31;;;;;;;;;6.33;2.33;;;;;22.66;42.31;101939.06;5022803;28;45240;-69
2022/07/16 02:28:56;;;;;;;;;8.00;6.00;;;;;22.62;42.77;101937.75;5040779;28;45359;-69
2022/07/16 02:31:22;;;;;;;;;4.67;4.67;;;;;22.61;42.76;101947.13;5019799;28;45465;-69
2022/07/16 02:33:47;;;;;;;;;8.33;5.33;;;;;22.51;43.88;101942.75;5013616;28;45649;-69
2022/07/16 02:36:13;;;;;;;;;5.00;5.00;;;;;22.53;42.85;101948.09;5012119;28;45424;-69
2022/07/16 02:38:38;;;;;;;;;5.00;5.00;;;;;22.60;42.39;101949.03;5024754;28;45224;-69
2022/07/16 02:41:04;;;;;;;;;6.67;4.00;;;;;22.65;43.02;101953.97;5015140;28;45345;-68
2022/07/16 02:43:29;;;;;;;;;6.00;5.00;;;;;22.62;43.05;101951.59;5024620;28;45565;-69
2022/07/16 02:45:55;;;;;;;;;5.33;5.33;;;;;22.60;43.30;101948.16;5022675;28;45350;-68
2022/07/16 02:48:20;;;;;;;;;5.33;3.00;;;;;22.57;42.22;101956.91;5022426;28;45347;-68
2022/07/16 02:50:46;;;;;;;;;4.00;4.00;;;;;22.55;42.64;101956.22;5021799;28;45481;-68
2022/07/16 02:53:11;;;;;;;;;8.25;4.75;;;;;22.43;43.35;101953.09;5023592;28;47167;-68
2022/07/16 02:55:37;;;;;;;;;6.33;6.00;;;;;22.38;43.37;101948.16;5019780;28;45449;-69
2022/07/16 02:58:03;;;;;;;;;5.67;5.67;;;;;22.31;43.92;101952.78;5020461;28;45326;-68
2022/07/16 03:00:28;;;;;;;;;6.67;5.00;;;;;21.99;44.66;101936.66;5020299;28;45514;-68
2022/07/16 03:02:55;;;;;;;;;5.00;5.00;;;;;22.07;44.74;101951.22;5019066;28;45449;-68
2022/07/16 03:05:20;;;;;;;;;3.00;3.00;;;;;21.92;45.44;101952.25;5018378;28;45526;-69
2022/07/16 03:07:46;;;;;;;;;5.33;5.33;;;;;21.85;45.38;101938.34;5024581;28;45312;-69
2022/07/16 03:10:12;;;;;;;;;8.00;5.00;;;;;21.99;44.69;101940.25;5017243;28;45296;-69
2022/07/16 03:12:38;;;;;;;;;4.67;4.67;;;;;22.00;44.65;101939.22;5022065;28;46426;-70
2022/07/16 03:15:05;;;;;;;;;5.67;3.67;;;;;22.02;45.16;101942.66;5019067;28;45448;-69
2022/07/16 03:17:30;;;;;;;;;5.00;5.00;;;;;21.96;44.89;101937.91;5019987;28;45372;-69
2022/07/16 03:19:56;;;;;;;;;6.67;6.00;;;;;21.92;45.04;101944.81;5020789;28;45412;-69
2022/07/16 03:22:21;;;;;;;;;5.00;5.00;;;;;21.92;44.97;101944.81;5016858;28;45476;-68
2022/07/16 03:24:47;;;;;;;;;1.00;0.00;;;;;21.77;46.29;101943.16;5021854;28;45426;-69
2022/07/16 03:27:12;;;;;;;;;4.00;4.00;;;;;21.86;45.69;101947.50;5021335;28;45429;-69
2022/07/16 03:29:39;;;;;;;;;5.00;4.67;;;;;21.83;45.15;101945.16;5022718;28;45561;-69
2022/07/16 03:32:04;;;;;;;;;8.00;6.75;;;;;21.86;45.60;101951.13;5014037;28;46453;-69
2022/07/16 03:34:30;;;;;;;;;5.33;5.33;;;;;21.89;45.76;101944.38;5019437;28;45418;-70
2022/07/16 03:36:55;;;;;;;;;4.33;4.33;;;;;21.78;45.44;101945.72;5029700;28;45319;-69
2022/07/16 03:39:20;;;;;;;;;4.67;4.67;;;;;21.84;44.83;101944.97;5022816;28;45516;-70
2022/07/16 03:41:46;;;;;;;;;5.00;5.00;;;;;21.82;45.90;101940.66;5025973;28;46470;-71
2022/07/16 03:44:12;;;;;;;;;7.00;7.00;;;;;21.64;46.82;101949.34;5023630;28;45362;-71
2022/07/16 03:46:38;;;;;;;;;5.75;5.75;;;;;21.59;47.26;101941.63;5018023;28;45341;-69
2022/07/16 03:49:04;;;;;;;;;6.50;6.50;;;;;21.49;47.37;101963.19;5024652;28;45720;-69
2022/07/16 03:51:29;;;;;;;;;5.25;5.00;;;;;21.39;47.93;101956.22;5015180;28;45477;-69
2022/07/16 03:53:55;;;;;;;;;6.75;5.25;;;;;21.34;48.17;101960.41;5024090;28;45412;-69
2022/07/16 03:56:20;;;;;;;;;6.00;6.00;;;;;21.24;48.38;101945.16;5014972;28;45829;-69
2022/07/16 03:58:46;;;;;;;;;6.50;6.50;;;;;21.44;47.93;101953.75;5023118;28;45486;-68
2022/07/16 04:01:12;;;;;;;;;9.25;8.00;;;;;21.47;48.31;101962.53;5011731;28;45392;-69
2022/07/16 04:03:38;;;;;;;;;6.00;5.00;;;;;21.41;47.80;101952.22;5022834;28;45486;-69
2022/07/16 04:06:03;;;;;;;;;5.00;5.00;;;;;21.51;47.56;101958.31;5017604;28;45281;-69
2022/07/16 04:08:30;;;;;;;;;6.00;6.00;;;;;21.50;47.69;101966.81;5023933;28;45308;-68
2022/07/16 04:10:55;;;;;;;;;6.50;5.00;;;;;21.42;48.40;101965.00;5020520;28;45727;-69
2022/07/16 04:13:21;;;;;;;;;7.75;6.50;;;;;21.36;47.93;101963.00;5021875;28;45343;-68
2022/07/16 04:15:46;;;;;;;;;5.25;5.25;;;;;21.28;48.61;101961.16;5018743;28;45294;-68
2022/07/16 04:18:12;;;;;;;;;5.00;4.33;;;;;21.32;48.35;101970.81;5020558;28;45629;-69
2022/07/16 04:20:38;;;;;;;;;8.00;7.75;;;;;21.25;48.73;101972.63;5016884;28;45915;-69
2022/07/16 04:23:03;;;;;;;;;7.25;5.75;;;;;21.14;50.11;101980.47;5022441;28;45375;-72
2022/07/16 04:25:29;;;;;;;;;7.00;7.00;;;;;21.08;49.57;101976.56;5011375;28;46651;-69
2022/07/16 04:27:54;;;;;;;;;9.33;9.33;;;;;21.07;50.31;101990.56;5023577;28;45426;-69
2022/07/16 04:30:20;;;;;;;;;7.00;5.67;;;;;21.08;49.80;101983.97;5016827;28;45489;-69
2022/07/16 04:32:46;;;;;;;;;8.50;8.50;;;;;21.15;48.91;101976.66;5014360;28;45307;-69
2022/07/16 04:35:13;;;;;;;;;8.50;7.25;;;;;21.29;49.41;101987.78;5020525;28;45459;-69
2022/07/16 04:37:39;;;;;;;;;10.25;7.00;;;;;21.36;49.60;101985.97;5018668;28;45450;-69
2022/07/16 04:40:05;;;;;;;;;3.75;3.50;;;;;21.36;50.30;101990.63;5018938;28;45378;-69
2022/07/16 04:42:31;;;;;;;;;10.50;9.25;;;;;21.43;49.46;101986.06;5022298;28;45346;-69
2022/07/16 04:44:56;;;;;;;;;10.00;9.00;;;;;21.52;48.65;101984.94;5020544;28;45441;-69
2022/07/16 04:47:21;;;;;;;;;11.50;9.00;;;;;21.58;48.79;101995.22;5020978;28;45585;-69
2022/07/16 04:49:47;;;;;;;;;8.50;8.50;;;;;21.52;47.97;101973.00;5019343;28;47463;-69
2022/07/16 04:52:12;;;;;;;;;7.00;6.50;;;;;21.70;48.71;101992.84;5016445;28;45426;-70
2022/07/16 04:54:37;;;;;;;;;9.75;9.75;;;;;21.71;48.10;101989.88;5021292;28;45514;-70
2022/07/16 04:57:03;;;;;;;;;6.00;6.00;;;;;21.75;48.45;101994.00;5018010;28;45563;-70
2022/07/16 04:59:28;;;;;;;;;8.00;6.00;;;;;21.75;48.69;101999.53;5019740;28;46884;-71
2022/07/16 05:02:56;;;;;;;;;7.00;7.00;;;;;21.63;49.17;101994.66;5027015;28;45343;-69
2022/07/16 05:04:39;;;;;;;;;8.33;6.33;;;;;21.69;48.69;101997.53;5007350;28;45446;-68
2022/07/16 05:07:04;;;;;;;;;6.00;6.00;;;;;22.24;47.46;101990.59;5016104;28;45315;-70
2022/07/16 05:09:30;;;;;;;;;6.00;6.00;;;;;23.91;43.61;101996.34;5015356;28;45619;-70
2022/07/16 05:11:55;;;;;;;;;5.33;5.00;;;;;23.71;42.65;101989.84;5031141;28;45422;-69
2022/07/16 05:14:20;;;;;;;;;7.00;4.33;;;;;23.24;44.23;101996.09;5017314;28;45473;-69
2022/07/16 05:16:46;;;;;;;;;5.00;5.00;;;;;22.92;44.62;101997.53;5017572;28;45430;-70
2022/07/16 05:19:11;;;;;;;;;7.33;5.67;;;;;22.48;46.50;101994.94;5016304;28;45507;-70
2022/07/16 05:21:36;;;;;;;;;5.00;5.00;;;;;22.21;47.22;101990.16;5017376;28;45483;-70
2022/07/16 05:24:02;;;;;;;;;7.00;7.00;;;;;22.02;48.00;101991.59;5014430;28;45315;-71
2022/07/16 05:26:27;;;;;;;;;6.00;6.00;;;;;21.84;48.48;101988.38;5017253;28;45600;-70
2022/07/16 05:28:52;;;;;;;;;5.00;4.00;;;;;21.89;48.57;101985.88;5022626;28;46577;-70
2022/07/16 05:31:18;;;;;;;;;4.67;4.33;;;;;22.10;48.02;101983.19;5016667;28;45323;-71
2022/07/16 05:33:43;;;;;;;;;5.00;5.00;;;;;23.15;45.41;101983.47;5011003;28;45413;-70
2022/07/16 05:36:09;;;;;;;;;9.67;7.67;;;;;23.86;42.91;101982.25;5013706;28;45414;-70
2022/07/16 05:38:34;;;;;;;;;6.67;4.67;;;;;23.34;44.70;101992.97;5020408;28;45570;-70
2022/07/16 05:40:59;;;;;;;;;6.00;5.33;;;;;23.25;44.86;101993.13;5013473;28;47488;-71
2022/07/16 05:43:24;;;;;;;;;7.00;6.33;;;;;23.12;45.06;101990.25;5035410;28;45391;-71
2022/07/16 05:45:50;;;;;;;;;7.00;5.50;;;;;22.94;45.11;101986.25;5020675;28;45467;-71
2022/07/16 05:48:15;;;;;;;;;5.00;5.00;;;;;23.03;44.63;101982.28;5022123;28;45383;-69
2022/07/16 05:50:40;;;;;;;;;5.00;5.00;;;;;23.10;44.90;101992.34;5022742;28;45307;-71
2022/07/16 05:53:06;;;;;;;;;7.33;6.00;;;;;23.08;45.09;102004.72;5023466;28;45398;-70
2022/07/16 05:55:31;;;;;;;;;10.33;7.00;;;;;22.91;45.61;101981.97;5021261;28;47329;-70
2022/07/16 05:57:57;;;;;;;;;5.00;4.00;;;;;23.15;45.18;102008.41;5024601;28;45968;-70
2022/07/16 06:00:22;;;;;;;;;6.33;6.00;;;;;23.29;44.63;102010.22;5019331;28;45328;-70
2022/07/16 06:02:47;;;;;;;;;7.00;4.67;;;;;23.13;44.84;102008.59;5019696;28;45515;-69
2022/07/16 06:05:13;;;;;;;;;5.33;5.33;;;;;22.90;45.42;102011.59;5020805;28;45421;-70
2022/07/16 06:07:39;;;;;;;;;8.33;7.33;;;;;23.03;45.50;102018.31;5015580;28;45211;-69
2022/07/16 06:10:05;;;;;;;;;8.00;6.50;;;;;23.22;45.26;102017.63;5017338;28;45500;-68
2022/07/16 06:12:30;;;;;;;;;6.67;4.67;;;;;23.85;44.35;102021.28;5017199;28;45327;-70
2022/07/16 06:14:56;;;;;;;;;6.67;5.67;;;;;24.13;42.48;102026.78;5022340;28;45513;-69
2022/07/16 06:17:21;;;;;;;;;6.00;6.00;;;;;24.06;42.95;102022.06;5018065;28;45397;-68
2022/07/16 06:19:46;;;;;;;;;7.00;6.00;;;;;23.90;42.82;102027.09;5022107;28;45251;-73
2022/07/16 06:22:12;;;;;;;;;9.00;6.75;;;;;23.73;43.22;102034.03;5016840;28;46087;-68
2022/07/16 06:24:37;;;;;;;;;5.33;4.33;;;;;23.81;43.05;102028.34;5021095;28;45774;-68
2022/07/16 06:27:03;;;;;;;;;10.00;6.33;;;;;23.86;42.96;102010.00;5029656;28;46263;-69
2022/07/16 06:29:29;;;;;;;;;8.67;6.67;;;;;24.07;42.51;102039.56;5013237;28;45587;-69
2022/07/16 06:31:54;;;;;;;;;4.67;4.67;;;;;24.16;42.27;102032.78;5016588;28;45385;-69
2022/07/16 06:34:20;;;;;;;;;6.00;6.00;;;;;24.18;42.39;102036.19;5017342;28;45648;-70
2022/07/16 06:36:45;;;;;;;;;5.67;5.67;;;;;24.34;42.08;102041.44;5015804;28;45410;-72
2022/07/16 06:39:11;;;;;;;;;6.00;5.33;;;;;24.13;42.59;102041.50;5030867;28;45366;-70
2022/07/16 06:41:37;;;;;;;;;7.00;5.00;;;;;24.38;41.82;102053.00;5019151;28;45458;-70
2022/07/16 06:44:04;;;;;;;;;5.67;5.67;;;;;24.66;41.16;102056.50;5025561;28;45572;-67
2022/07/16 06:46:29;;;;;;;;;5.00;5.00;;;;;24.63;41.03;102061.59;5018539;28;45654;-67
2022/07/16 06:48:54;;;;;;;;;6.00;6.00;;;;;24.63;41.23;102056.91;5025070;28;45178;-70
2022/07/16 06:51:20;;;;;;;;;7.00;5.00;;;;;24.84;40.19;102058.66;5018715;28;45312;-68
2022/07/16 06:53:45;;;;;;;;;7.00;6.00;;;;;24.90;39.71;102063.44;5020164;28;45565;-67
2022/07/16 06:56:10;;;;;;;;;6.00;4.67;;;;;24.94;39.88;102063.84;5017486;28;47851;-69
2022/07/16 06:58:36;;;;;;;;;8.00;6.33;;;;;25.05;40.18;102072.44;5013505;28;45382;-69
2022/07/16 07:01:02;;;;;;;;;6.67;6.67;;;;;25.12;39.76;102080.81;5015022;28;45472;-68
2022/07/16 07:03:28;;;;;;;;;3.67;3.67;;;;;24.94;39.88;102080.53;5023115;28;45372;-68
2022/07/16 07:05:53;;;;;;;;;5.00;4.00;;;;;25.21;39.82;102077.56;5018336;28;46538;-68
2022/07/16 07:08:18;;;;;;;;;8.00;6.33;;;;;25.27;39.83;102084.25;5024867;28;45309;-68
2022/07/16 07:10:44;;;;;;;;;5.33;5.00;;;;;25.31;39.43;102077.16;5017641;28;45530;-68
2022/07/16 07:13:09;;;;;;;;;5.00;3.67;;;;;25.47;38.24;102075.88;5023083;28;45564;-69
2022/07/16 07:15:35;;;;;;;;;5.00;4.67;;;;;25.31;39.27;102076.31;5016707;28;46882;-69
2022/07/16 07:18:00;;;;;;;;;5.00;5.00;;;;;25.23;39.54;102077.38;5026049;28;45745;-68
2022/07/16 07:20:25;;;;;;;;;5.33;5.33;;;;;25.39;38.68;102076.97;5022474;28;45400;-69
2022/07/16 07:22:51;;;;;;;;;5.33;5.33;;;;;25.39;39.47;102079.75;5024227;28;45397;-69
2022/07/16 07:25:16;;;;;;;;;6.00;6.00;;;;;25.51;38.17;102075.22;5018848;28;46785;-68
2022/07/16 07:27:42;;;;;;;;;6.00;4.33;;;;;25.52;38.46;102073.31;5023585;28;45481;-68
2022/07/16 07:30:08;;;;;;;;;9.00;9.00;;;;;25.87;37.22;102083.13;5018931;28;45538;-68
2022/07/16 07:32:33;;;;;;;;;5.00;5.00;;;;;26.12;37.20;102080.53;5014260;28;45181;-68
2022/07/16 07:34:58;;;;;;;;;3.33;3.33;;;;;26.12;36.63;102079.66;5018673;28;46157;-69
2022/07/16 07:37:24;;;;;;;;;4.33;4.33;;;;;26.22;35.78;102077.28;5015644;28;45380;-69
2022/07/16 07:39:49;;;;;;;;;7.33;4.00;;;;;26.29;36.13;102079.00;5020854;28;45422;-69
2022/07/16 07:42:15;;;;;;;;;4.67;4.33;;;;;26.00;36.41;102076.72;5023446;28;45414;-69
2022/07/16 07:44:40;;;;;;;;;5.00;4.00;;;;;25.83;37.27;102081.03;5022072;28;46325;-69
2022/07/16 07:47:05;;;;;;;;;6.00;5.00;;;;;25.86;35.99;102080.59;5020232;28;45348;-69
2022/07/16 07:49:31;;;;;;;;;6.00;5.00;;;;;26.03;35.99;102076.25;5022903;28;45542;-69
2022/07/16 07:51:56;;;;;;;;;5.00;5.00;;;;;26.34;36.13;102073.63;5013878;28;45398;-69
2022/07/16 07:54:22;;;;;;;;;6.00;6.00;;;;;26.51;35.57;102070.34;5022823;28;45680;-68
2022/07/16 07:56:48;;;;;;;;;3.67;3.00;;;;;26.62;35.00;102061.25;5014929;28;45397;-69
2022/07/16 07:59:14;;;;;;;;;5.67;4.00;;;;;26.69;35.38;102076.03;5023624;28;45532;-69
2022/07/16 08:01:39;;;;;;;;;5.00;5.00;;;;;26.84;34.79;102067.34;5015021;28;45481;-68
2022/07/16 08:04:05;;;;;;;;;5.33;4.00;;;;;26.80;35.27;102072.53;5023758;28;45423;-68
2022/07/16 08:06:30;;;;;;;;;6.33;6.00;;;;;26.96;34.50;102071.16;5007409;28;45425;-68
2022/07/16 08:08:56;;;;;;;;;4.33;4.33;;;;;26.97;35.00;102068.16;5023450;28;45256;-69
2022/07/16 08:11:21;;;;;;;;;5.67;5.67;;;;;26.94;34.13;102079.78;5015894;28;45554;-69
2022/07/16 08:13:46;;;;;;;;;5.33;5.33;;;;;26.98;34.24;102074.59;5016575;28;45406;-69
2022/07/16 08:16:11;;;;;;;;;4.00;4.00;;;;;27.13;34.05;102073.19;5017570;28;45407;-68
2022/07/16 08:18:37;;;;;;;;;4.00;4.00;;;;;27.22;33.77;102073.78;5022479;28;45457;-68
2022/07/16 08:21:03;;;;;;;;;4.00;4.00;;;;;27.40;33.65;102072.97;5017672;28;45485;-68
2022/07/16 08:26:12;;;;;;;;;4.33;4.33;;;;;27.51;32.83;102075.91;5017943;28;45369;-68
2022/07/16 08:28:40;;;;;;;;;5.00;5.00;;;;;27.65;33.28;102075.78;5022044;28;45387;-68
2022/07/16 08:31:06;;;;;;;;;4.00;4.00;;;;;27.39;33.57;102083.31;5015192;28;45482;-68
2022/07/16 08:33:31;;;;;;;;;4.67;4.67;;;;;27.45;34.14;102064.78;5012295;28;45663;-68
2022/07/16 08:35:57;;;;;;;;;6.67;5.67;;;;;27.32;33.75;102076.06;5015722;28;45355;-68
2022/07/16 08:38:22;;;;;;;;;4.67;4.67;;;;;27.31;34.16;102068.78;5020800;28;45484;-68
2022/07/16 08:40:49;;;;;;;;;10.00;5.00;;;;;27.31;34.00;102079.94;5016280;28;45438;-68
2022/07/16 08:43:14;;;;;;;;;6.00;4.00;;;;;27.44;33.91;102071.44;5033646;28;46202;-68
2022/07/16 08:45:40;;;;;;;;;6.00;5.00;;;;;27.39;34.10;102072.16;5018102;28;45370;-68
2022/07/16 08:48:06;;;;;;;;;6.00;6.00;;;;;27.66;33.95;102075.56;5013276;28;45416;-68
2022/07/16 08:50:31;;;;;;;;;5.25;5.25;;;;;27.51;33.54;102077.81;5020080;28;45310;-68
2022/07/16 08:52:57;;;;;;;;;5.75;5.75;;;;;27.53;33.94;102072.06;5015995;28;45340;-68
2022/07/16 08:55:24;;;;;;;;;4.67;4.33;;;;;28.14;33.47;102072.03;5020961;28;45258;-68
2022/07/16 08:57:50;;;;;;;;;5.00;5.00;;;;;28.42;32.54;102072.38;5015930;28;45239;-68
2022/07/16 09:00:16;;;;;;;;;7.00;7.00;;;;;28.78;31.65;102073.44;5017350;28;45462;-68
2022/07/16 09:02:42;;;;;;;;;7.33;7.33;;;;;28.87;31.57;102074.78;5014149;28;45413;-68
2022/07/16 09:05:08;;;;;;;;;5.00;5.00;;;;;28.39;31.98;102072.00;5018159;28;45621;-68
2022/07/16 09:07:34;;;;;;;;;6.33;6.33;;;;;28.78;31.69;102085.50;5017531;28;45496;-68
2022/07/16 09:10:00;;;;;;;;;5.00;5.00;;;;;28.80;31.58;102069.31;5015942;28;45382;-69
2022/07/16 09:12:35;;;;;;;;;9.00;5.75;;;;;28.82;31.51;102075.53;5015439;28;46301;-68
2022/07/16 09:15:22;;;;;;;;;5.50;5.50;;;;;29.22;31.29;102084.19;5006317;28;45460;-68
2022/07/16 09:18:10;;;;;;;;;6.00;6.00;;;;;29.68;30.44;102089.00;5011918;28;45394;-68
2022/07/16 09:20:41;;;;;;;;;4.33;3.00;;;;;29.97;29.94;102083.53;5017022;28;45632;-68
2022/07/16 09:23:17;;;;;;;;;4.00;4.00;;;;;30.09;28.79;102070.38;5012660;28;45568;-67
2022/07/16 09:25:53;;;;;;;;;6.00;6.00;;;;;29.47;30.27;102080.34;5017443;28;45451;-69
2022/07/16 09:28:18;;;;;;;;;4.67;4.00;;;;;29.28;29.90;102074.81;5021633;28;45421;-68
2022/07/16 09:30:44;;;;;;;;;4.33;4.33;;;;;29.50;30.12;102086.31;5018703;28;45604;-68
2022/07/16 09:33:18;;;;;;;;;5.25;5.25;;;;;30.21;28.02;102081.56;5022700;28;45427;-68
2022/07/16 09:35:44;;;;;;;;;7.67;6.00;;;;;30.65;27.32;102082.81;5015732;28;45284;-69
2022/07/16 09:38:10;;;;;;;;;3.67;3.67;;;;;30.88;26.48;102083.59;5019430;28;45354;-70
2022/07/16 09:40:37;;;;;;;;;9.00;8.00;;;;;30.99;26.49;102083.75;5036029;28;45644;-69
2022/07/16 09:43:12;;;;;;;;;4.33;4.33;;;;;31.01;26.57;102085.22;5017210;28;46334;-69
2022/07/16 09:45:39;;;;;;;;;4.00;4.00;;;;;31.15;25.85;102077.34;5016793;28;45395;-69
2022/07/16 09:48:36;;;;;;;;;7.00;5.00;;;;;31.13;26.13;102076.75;5023707;28;45331;-69
2022/07/16 09:51:25;;;;;;;;;8.00;8.00;;;;;30.99;26.69;102081.81;5015605;28;45474;-69
2022/07/16 09:53:53;;;;;;;;;4.75;4.75;;;;;31.33;26.55;102074.31;5011153;28;46139;-69
2022/07/16 09:56:28;;;;;;;;;5.67;4.00;;;;;31.58;25.88;102083.16;5012706;28;45384;-69
2022/07/16 09:58:56;;;;;;;;;7.00;5.50;;;;;32.03;25.63;102085.00;5001036;28;45352;-69
2022/07/16 10:01:22;;;;;;;;;5.00;5.00;;;;;32.33;24.97;102079.84;5009487;28;45470;-69
2022/07/16 10:03:49;;;;;;;;;6.33;5.33;;;;;32.65;24.17;102088.41;5014639;28;45508;-68
2022/07/16 10:06:15;;;;;;;;;4.67;4.00;;;;;32.90;24.60;102081.38;5012531;28;45426;-68
2022/07/16 10:08:43;;;;;;;;;5.75;5.75;;;;;32.46;23.52;102078.59;5020362;28;45483;-69
2022/07/16 10:11:10;;;;;;;;;5.67;5.00;;;;;31.36;25.18;102085.03;5014082;28;45443;-69
2022/07/16 10:13:37;;;;;;;;;5.00;5.00;;;;;31.80;24.78;102088.03;5020163;28;45503;-70
2022/07/16 10:16:03;;;;;;;;;8.00;6.33;;;;;32.43;24.87;102085.63;5017500;28;45351;-68
2022/07/16 10:18:33;;;;;;;;;4.33;4.33;;;;;32.82;23.53;102082.72;5028559;28;45220;-68
2022/07/16 10:21:18;;;;;;;;;5.00;5.00;;;;;32.71;23.70;102087.38;5012900;28;45522;-68
2022/07/16 10:23:47;;;;;;;;;5.00;5.00;;;;;32.29;24.02;102084.28;5015053;28;46544;-68
2022/07/16 10:26:18;;;;;;;;;3.00;3.00;;;;;32.23;24.53;102085.31;5016364;28;45347;-68
2022/07/16 10:28:47;;;;;;;;;3.50;3.50;;;;;32.04;24.05;102087.56;5019872;28;45392;-70
2022/07/16 10:31:34;;;;;;;;;5.00;4.50;;;;;32.35;24.13;102088.88;5016771;28;45384;-69
2022/07/16 10:34:14;;;;;;;;;6.00;6.00;;;;;32.75;24.30;102077.28;5017354;28;45324;-69
2022/07/16 10:36:46;;;;;;;;;6.25;6.25;;;;;33.10;23.33;102081.59;5017608;28;45357;-69
2022/07/16 10:39:15;;;;;;;;;7.50;7.50;;;;;32.40;23.43;102076.84;5023833;28;45352;-69
2022/07/16 10:41:51;;;;;;;;;6.00;6.00;;;;;32.18;24.36;102059.94;5018577;28;45752;-69
2022/07/16 10:44:18;;;;;;;;;5.00;5.00;;;;;33.11;22.93;102075.69;5024565;28;45355;-69
2022/07/16 10:47:01;;;;;;;;;4.33;4.33;;;;;33.73;22.91;102086.44;5017542;28;45440;-70
2022/07/16 10:49:29;;;;;;;;;4.00;3.67;;;;;33.38;22.03;102083.31;5020585;28;45554;-70
2022/07/16 10:51:58;;;;;;;;;5.00;4.75;;;;;32.81;22.61;102076.22;5020713;28;45310;-69
2022/07/16 10:54:30;;;;;;;;;5.00;5.00;;;;;33.39;22.31;102085.00;5021072;28;46629;-69
2022/07/16 10:56:58;;;;;;;;;8.00;8.00;;;;;33.62;22.46;102078.97;5022065;28;45506;-71
2022/07/16 10:59:27;;;;;;;;;7.00;6.25;;;;;34.31;21.61;102081.75;5023172;28;45441;-68
2022/07/16 11:01:55;;;;;;;;;6.00;4.25;;;;;34.87;20.52;102079.13;5014937;28;45454;-68
2022/07/16 11:04:28;;;;;;;;;5.00;5.00;;;;;35.22;19.87;102067.91;5018562;28;47728;-69
2022/07/16 11:06:54;;;;;;;;;5.50;4.50;;;;;34.37;20.78;102072.16;5015647;28;45334;-70
2022/07/16 11:09:28;;;;;;;;;4.00;4.00;;;;;35.02;20.64;102079.16;5023939;28;45330;-68
2022/07/16 11:11:54;;;;;;;;;5.00;5.00;;;;;35.05;20.91;102078.63;5021625;28;44847;-70
2022/07/16 11:14:28;;;;;;;;;3.25;3.25;;;;;35.33;20.47;102078.09;5022208;28;45720;-71
2022/07/16 11:16:53;;;;;;;;;4.00;4.00;;;;;35.25;19.93;102078.66;5018209;28;45303;-69
2022/07/16 11:19:18;;;;;;;;;8.25;6.75;;;;;33.98;21.01;102078.13;5021757;28;45420;-69
2022/07/16 11:22:14;;;;;;;;;4.00;4.00;;;;;34.81;20.29;102066.97;5018141;28;45303;-69
2022/07/16 11:24:49;;;;;;;;;5.00;5.00;;;;;35.16;20.45;102069.00;4998978;28;46916;-69
2022/07/16 11:27:15;;;;;;;;;5.25;5.25;;;;;35.48;19.87;102066.81;5021483;28;45506;-70